createdAt,value
2023-05-09T00:00:04.408Z,1028.90
2023-05-09T00:01:04.289Z,1028.94
2023-05-09T00:02:04.324Z,1028.90
2023-05-09T00:03:04.301Z,1028.92
2023-05-09T00:04:04.321Z,1028.91
2023-05-09T00:05:04.298Z,1028.90
2023-05-09T00:06:04.292Z,1028.91
2023-05-09T00:07:04.296Z,1028.84
2023-05-09T00:08:04.302Z,1028.88
2023-05-09T00:09:04.299Z,1028.85
2023-05-09T00:10:04.301Z,1028.88
2023-05-09T00:11:04.302Z,1028.89
2023-05-09T00:12:04.323Z,1028.90
2023-05-09T00:13:04.375Z,1028.88
2023-05-09T00:14:04.310Z,1028.92
2023-05-09T00:15:04.316Z,1028.88
2023-05-09T00:16:04.459Z,1028.88
2023-05-09T00:17:04.316Z,1028.91
2023-05-09T00:18:04.345Z,1028.88
2023-05-09T00:19:04.320Z,1028.87
2023-05-09T00:20:04.329Z,1028.92
2023-05-09T00:21:04.331Z,1028.93
2023-05-09T00:22:04.327Z,1028.90
2023-05-09T00:23:04.335Z,1028.91
2023-05-09T00:24:04.324Z,1028.89
2023-05-09T00:25:04.333Z,1028.90
2023-05-09T00:26:04.334Z,1028.88
2023-05-09T00:27:04.352Z,1028.90
2023-05-09T00:28:04.333Z,1028.91
2023-05-09T00:29:04.344Z,1028.88
2023-05-09T00:30:04.369Z,1028.92
2023-05-09T00:31:04.350Z,1028.92
2023-05-09T00:32:04.481Z,1028.92
2023-05-09T00:33:04.384Z,1028.93
2023-05-09T00:34:04.346Z,1028.89
2023-05-09T00:35:04.351Z,1028.88
2023-05-09T00:36:04.353Z,1028.87
2023-05-09T00:37:04.349Z,1028.90
2023-05-09T00:38:04.361Z,1028.88
2023-05-09T00:39:04.372Z,1028.88
2023-05-09T00:40:04.364Z,1028.90
2023-05-09T00:41:04.368Z,1028.94
2023-05-09T00:42:04.515Z,1028.92
2023-05-09T00:43:04.377Z,1028.95
2023-05-09T00:44:04.375Z,1028.95
2023-05-09T00:45:04.377Z,1028.96
2023-05-09T00:46:04.508Z,1028.96
2023-05-09T00:47:04.374Z,1028.95
2023-05-09T00:48:04.528Z,1028.93
2023-05-09T00:49:04.379Z,1028.97
2023-05-09T00:50:04.377Z,1028.98
2023-05-09T00:51:04.383Z,1028.95
2023-05-09T00:52:04.389Z,1028.96
2023-05-09T00:53:04.393Z,1028.97
2023-05-09T00:54:05.232Z,1029.00
2023-05-09T00:55:04.420Z,1028.99
2023-05-09T00:56:04.391Z,1028.97
2023-05-09T00:57:04.397Z,1028.96
2023-05-09T00:58:04.394Z,1028.96
2023-05-09T00:59:04.401Z,1028.98
2023-05-09T01:00:04.415Z,1028.94
2023-05-09T01:01:04.422Z,1028.95
2023-05-09T01:02:04.403Z,1028.96
2023-05-09T01:03:04.448Z,1028.96
2023-05-09T01:04:04.537Z,1028.90
2023-05-09T01:05:04.414Z,1028.89
2023-05-09T01:06:04.419Z,1028.89
2023-05-09T01:07:04.413Z,1028.90
2023-05-09T01:08:04.423Z,1028.85
2023-05-09T01:09:04.420Z,1028.87
2023-05-09T01:10:04.430Z,1028.92
2023-05-09T01:11:04.418Z,1028.94
2023-05-09T01:12:04.424Z,1028.92
2023-05-09T01:13:04.478Z,1028.91
2023-05-09T01:14:04.428Z,1028.95
2023-05-09T01:15:04.486Z,1028.94
2023-05-09T01:16:04.459Z,1028.94
2023-05-09T01:17:04.437Z,1028.94
2023-05-09T01:18:04.485Z,1028.90
2023-05-09T01:19:04.445Z,1028.90
2023-05-09T01:20:04.584Z,1028.92
2023-05-09T01:21:04.448Z,1028.90
2023-05-09T01:22:04.445Z,1028.90
2023-05-09T01:23:04.444Z,1028.95
2023-05-09T01:24:04.471Z,1028.90
2023-05-09T01:25:04.456Z,1028.92
2023-05-09T01:26:04.450Z,1028.92
2023-05-09T01:27:04.461Z,1028.91
2023-05-09T01:28:04.468Z,1028.91
2023-05-09T01:29:04.466Z,1028.89
2023-05-09T01:30:04.462Z,1028.90
2023-05-09T01:31:04.533Z,1028.90
2023-05-09T01:32:04.471Z,1028.89
2023-05-09T01:33:04.528Z,1028.90
2023-05-09T01:34:04.469Z,1028.90
2023-05-09T01:35:04.478Z,1028.90
2023-05-09T01:36:04.614Z,1028.89
2023-05-09T01:37:04.484Z,1028.86
2023-05-09T01:38:04.474Z,1028.88
2023-05-09T01:39:04.497Z,1028.87
2023-05-09T01:40:04.481Z,1028.90
2023-05-09T01:41:04.484Z,1028.86
2023-05-09T01:42:04.532Z,1028.87
2023-05-09T01:43:04.490Z,1028.86
2023-05-09T01:44:04.523Z,1028.88
2023-05-09T01:45:04.506Z,1028.90
2023-05-09T01:46:04.496Z,1028.89
2023-05-09T01:47:04.497Z,1028.85
2023-05-09T01:48:04.540Z,1028.83
2023-05-09T01:49:04.503Z,1028.86
2023-05-09T01:50:04.500Z,1028.83
2023-05-09T01:51:04.500Z,1028.84
2023-05-09T01:52:04.633Z,1028.84
2023-05-09T01:53:04.513Z,1028.82
2023-05-09T01:54:04.509Z,1028.86
2023-05-09T01:55:04.512Z,1028.85
2023-05-09T01:56:04.534Z,1028.84
2023-05-09T01:57:04.514Z,1028.80
2023-05-09T01:58:04.546Z,1028.82
2023-05-09T01:59:04.526Z,1028.81
2023-05-09T02:00:04.533Z,1028.80
2023-05-09T02:01:04.557Z,1028.82
2023-05-09T02:02:04.583Z,1028.81
2023-05-09T02:03:04.579Z,1028.79
2023-05-09T02:04:04.527Z,1028.78
2023-05-09T02:05:04.539Z,1028.85
2023-05-09T02:06:04.532Z,1028.78
2023-05-09T02:07:04.540Z,1028.79
2023-05-09T02:08:04.666Z,1028.83
2023-05-09T02:09:04.535Z,1028.82
2023-05-09T02:10:04.541Z,1028.83
2023-05-09T02:11:04.547Z,1028.80
2023-05-09T02:12:04.579Z,1028.83
2023-05-09T02:13:04.581Z,1028.82
2023-05-09T02:14:04.565Z,1028.81
2023-05-09T02:15:04.555Z,1028.81
2023-05-09T02:16:04.572Z,1028.81
2023-05-09T02:17:04.679Z,1028.80
2023-05-09T02:18:04.583Z,1028.81
2023-05-09T02:19:04.556Z,1028.77
2023-05-09T02:20:04.559Z,1028.78
2023-05-09T02:21:04.619Z,1028.75
2023-05-09T02:22:04.573Z,1028.71
2023-05-09T02:23:04.569Z,1028.75
2023-05-09T02:24:04.697Z,1028.75
2023-05-09T02:25:04.565Z,1028.69
2023-05-09T02:26:04.575Z,1028.72
2023-05-09T02:27:04.596Z,1028.76
2023-05-09T02:28:04.586Z,1028.73
2023-05-09T02:29:04.573Z,1028.71
2023-05-09T02:30:04.573Z,1028.72
2023-05-09T02:31:04.586Z,1028.70
2023-05-09T02:32:04.616Z,1028.69
2023-05-09T02:33:04.655Z,1028.72
2023-05-09T02:34:04.576Z,1028.71
2023-05-09T02:35:04.583Z,1028.69
2023-05-09T02:36:04.591Z,1028.76
2023-05-09T02:37:04.590Z,1028.72
2023-05-09T02:38:04.586Z,1028.72
2023-05-09T02:39:04.605Z,1028.71
2023-05-09T02:40:04.717Z,1028.73
2023-05-09T02:41:04.597Z,1028.70
2023-05-09T02:42:04.593Z,1028.70
2023-05-09T02:43:04.597Z,1028.70
2023-05-09T02:44:04.599Z,1028.70
2023-05-09T02:45:04.628Z,1028.68
2023-05-09T02:46:04.612Z,1028.68
2023-05-09T02:47:04.610Z,1028.69
2023-05-09T02:48:06.876Z,1028.68
2023-05-09T02:49:04.616Z,1028.69
2023-05-09T02:50:04.615Z,1028.69
2023-05-09T02:51:04.625Z,1028.69
2023-05-09T02:52:04.618Z,1028.65
2023-05-09T02:53:04.617Z,1028.61
2023-05-09T02:54:04.614Z,1028.62
2023-05-09T02:55:04.622Z,1028.65
2023-05-09T02:56:04.745Z,1028.60
2023-05-09T02:57:04.622Z,1028.61
2023-05-09T02:58:13.492Z,1028.65
2023-05-09T02:59:04.629Z,1028.64
2023-05-09T03:00:04.637Z,1028.66
2023-05-09T03:01:04.656Z,1028.61
2023-05-09T03:02:04.638Z,1028.62
2023-05-09T03:03:04.686Z,1028.63
2023-05-09T03:04:04.648Z,1028.66
2023-05-09T03:05:04.666Z,1028.61
2023-05-09T03:06:04.644Z,1028.63
2023-05-09T03:07:04.641Z,1028.59
2023-05-09T03:08:04.646Z,1028.60
2023-05-09T03:09:04.653Z,1028.64
2023-05-09T03:10:04.655Z,1028.61
2023-05-09T03:11:04.656Z,1028.58
2023-05-09T03:12:04.779Z,1028.62
2023-05-09T03:13:04.688Z,1028.61
2023-05-09T03:14:04.664Z,1028.57
2023-05-09T03:15:04.658Z,1028.58
2023-05-09T03:16:04.695Z,1028.57
2023-05-09T03:17:04.662Z,1028.59
2023-05-09T03:18:04.708Z,1028.53
2023-05-09T03:19:04.673Z,1028.54
2023-05-09T03:20:04.698Z,1028.51
2023-05-09T03:21:04.671Z,1028.50
2023-05-09T03:22:04.676Z,1028.50
2023-05-09T03:23:04.687Z,1028.54
2023-05-09T03:24:04.678Z,1028.53
2023-05-09T03:25:04.707Z,1028.53
2023-05-09T03:26:04.704Z,1028.50
2023-05-09T03:27:04.687Z,1028.50
2023-05-09T03:28:04.811Z,1028.50
2023-05-09T03:29:04.695Z,1028.52
2023-05-09T03:30:04.690Z,1028.50
2023-05-09T03:31:04.740Z,1028.53
2023-05-09T03:32:05.000Z,1028.50
2023-05-09T03:33:04.783Z,1028.51
2023-05-09T03:34:04.701Z,1028.48
2023-05-09T03:35:04.696Z,1028.47
2023-05-09T03:36:04.698Z,1028.47
2023-05-09T03:37:04.712Z,1028.47
2023-05-09T03:38:04.699Z,1028.50
2023-05-09T03:39:04.708Z,1028.48
2023-05-09T03:40:04.723Z,1028.45
2023-05-09T03:41:04.704Z,1028.50
2023-05-09T03:42:04.708Z,1028.49
2023-05-09T03:43:04.709Z,1028.46
2023-05-09T03:44:04.846Z,1028.49
2023-05-09T03:45:04.710Z,1028.47
2023-05-09T03:46:04.712Z,1028.52
2023-05-09T03:47:04.846Z,1028.48
2023-05-09T03:48:04.722Z,1028.50
2023-05-09T03:49:04.739Z,1028.52
2023-05-09T03:50:04.724Z,1028.57
2023-05-09T03:51:04.728Z,1028.56
2023-05-09T03:52:04.726Z,1028.61
2023-05-09T03:53:04.726Z,1028.61
2023-05-09T03:54:04.729Z,1028.57
2023-05-09T03:55:04.763Z,1028.61
2023-05-09T03:56:04.735Z,1028.60
2023-05-09T03:57:04.885Z,1028.57
2023-05-09T03:58:04.737Z,1028.63
2023-05-09T03:59:04.747Z,1028.61
2023-05-09T04:00:04.875Z,1028.57
2023-05-09T04:01:04.760Z,1028.60
2023-05-09T04:02:04.883Z,1028.59
2023-05-09T04:03:04.810Z,1028.57
2023-05-09T04:04:04.867Z,1028.53
2023-05-09T04:05:04.750Z,1028.58
2023-05-09T04:06:04.767Z,1028.54
2023-05-09T04:07:04.758Z,1028.55
2023-05-09T04:08:04.754Z,1028.56
2023-05-09T04:09:04.762Z,1028.56
2023-05-09T04:10:04.757Z,1028.54
2023-05-09T04:11:04.789Z,1028.55
2023-05-09T04:12:04.775Z,1028.57
2023-05-09T04:13:04.898Z,1028.52
2023-05-09T04:14:04.769Z,1028.57
2023-05-09T04:15:04.775Z,1028.52
2023-05-09T04:16:04.891Z,1028.54
2023-05-09T04:17:04.861Z,1028.52
2023-05-09T04:18:04.856Z,1028.50
2023-05-09T04:19:04.797Z,1028.51
2023-05-09T04:20:04.795Z,1028.50
2023-05-09T04:21:04.787Z,1028.50
2023-05-09T04:22:04.780Z,1028.54
2023-05-09T04:23:04.786Z,1028.51
2023-05-09T04:24:04.784Z,1028.51
2023-05-09T04:25:04.785Z,1028.54
2023-05-09T04:26:04.789Z,1028.54
2023-05-09T04:27:04.792Z,1028.51
2023-05-09T04:28:04.799Z,1028.49
2023-05-09T04:29:04.796Z,1028.47
2023-05-09T04:30:04.798Z,1028.48
2023-05-09T04:31:04.876Z,1028.48
2023-05-09T04:32:04.905Z,1028.53
2023-05-09T04:33:04.867Z,1028.47
2023-05-09T04:34:04.803Z,1028.50
2023-05-09T04:35:04.817Z,1028.47
2023-05-09T04:36:04.815Z,1028.52
2023-05-09T04:37:04.813Z,1028.53
2023-05-09T04:38:04.812Z,1028.52
2023-05-09T04:39:04.810Z,1028.52
2023-05-09T04:40:04.825Z,1028.53
2023-05-09T04:41:04.818Z,1028.53
2023-05-09T04:42:04.834Z,1028.54
2023-05-09T04:43:04.826Z,1028.52
2023-05-09T04:44:04.826Z,1028.51
2023-05-09T04:45:04.827Z,1028.49
2023-05-09T04:46:04.875Z,1028.51
2023-05-09T04:47:04.838Z,1028.53
2023-05-09T04:48:04.998Z,1028.51
2023-05-09T04:49:04.832Z,1028.49
2023-05-09T04:50:04.836Z,1028.52
2023-05-09T04:51:04.830Z,1028.47
2023-05-09T04:52:04.844Z,1028.45
2023-05-09T04:53:04.847Z,1028.50
2023-05-09T04:54:04.853Z,1028.49
2023-05-09T04:55:04.843Z,1028.50
2023-05-09T04:56:04.858Z,1028.53
2023-05-09T04:57:16.635Z,1028.49
2023-05-09T04:58:04.866Z,1028.53
2023-05-09T04:59:04.865Z,1028.55
2023-05-09T05:00:04.859Z,1028.57
2023-05-09T05:01:04.853Z,1028.53
2023-05-09T05:02:04.970Z,1028.52
2023-05-09T05:03:04.891Z,1028.54
2023-05-09T05:04:04.981Z,1028.57
2023-05-09T05:05:11.669Z,1028.53
2023-05-09T05:06:04.888Z,1028.53
2023-05-09T05:07:04.869Z,1028.49
2023-05-09T05:08:04.871Z,1028.54
2023-05-09T05:09:04.870Z,1028.53
2023-05-09T05:10:04.871Z,1028.51
2023-05-09T05:11:04.870Z,1028.55
2023-05-09T05:12:06.083Z,1028.53
2023-05-09T05:13:04.932Z,1028.57
2023-05-09T05:14:04.880Z,1028.52
2023-05-09T05:15:04.886Z,1028.50
2023-05-09T05:16:04.905Z,1028.53
2023-05-09T05:17:04.890Z,1028.49
2023-05-09T05:18:04.916Z,1028.50
2023-05-09T05:19:04.893Z,1028.48
2023-05-09T05:20:05.009Z,1028.47
2023-05-09T05:21:04.892Z,1028.49
2023-05-09T05:22:04.894Z,1028.47
2023-05-09T05:23:04.906Z,1028.50
2023-05-09T05:24:04.891Z,1028.51
2023-05-09T05:25:04.905Z,1028.49
2023-05-09T05:26:04.907Z,1028.47
2023-05-09T05:27:04.910Z,1028.45
2023-05-09T05:28:04.908Z,1028.46
2023-05-09T05:29:04.914Z,1028.45
2023-05-09T05:30:04.914Z,1028.41
2023-05-09T05:31:04.968Z,1028.44
2023-05-09T05:32:04.914Z,1028.40
2023-05-09T05:33:04.968Z,1028.39
2023-05-09T05:34:04.923Z,1028.43
2023-05-09T05:35:04.929Z,1028.45
2023-05-09T05:36:05.046Z,1028.41
2023-05-09T05:37:04.921Z,1028.37
2023-05-09T05:38:04.924Z,1028.42
2023-05-09T05:39:04.923Z,1028.42
2023-05-09T05:40:04.945Z,1028.43
2023-05-09T05:41:04.925Z,1028.39
2023-05-09T05:42:04.925Z,1028.38
2023-05-09T05:43:04.938Z,1028.37
2023-05-09T05:44:04.942Z,1028.38
2023-05-09T05:45:04.954Z,1028.39
2023-05-09T05:46:05.048Z,1028.38
2023-05-09T05:47:04.948Z,1028.35
2023-05-09T05:48:05.003Z,1028.38
2023-05-09T05:49:04.945Z,1028.36
2023-05-09T05:50:04.942Z,1028.39
2023-05-09T05:51:04.995Z,1028.40
2023-05-09T05:52:05.078Z,1028.38
2023-05-09T05:53:04.956Z,1028.33
2023-05-09T05:54:04.970Z,1028.33
2023-05-09T05:55:04.957Z,1028.33
2023-05-09T05:56:04.961Z,1028.34
2023-05-09T05:57:04.960Z,1028.38
2023-05-09T05:58:04.963Z,1028.36
2023-05-09T05:59:04.958Z,1028.32
2023-05-09T06:00:04.971Z,1028.31
2023-05-09T06:01:04.967Z,1028.29
2023-05-09T06:02:05.280Z,1028.29
2023-05-09T06:03:05.044Z,1028.28
2023-05-09T06:04:05.023Z,1028.27
2023-05-09T06:05:04.960Z,1028.25
2023-05-09T06:06:04.969Z,1028.24
2023-05-09T06:07:04.982Z,1028.26
2023-05-09T06:08:05.252Z,1028.24
2023-05-09T06:09:04.993Z,1028.23
2023-05-09T06:10:05.005Z,1028.24
2023-05-09T06:11:04.981Z,1028.22
2023-05-09T06:12:04.980Z,1028.24
2023-05-09T06:13:05.033Z,1028.20
2023-05-09T06:14:05.004Z,1028.20
2023-05-09T06:15:05.006Z,1028.18
2023-05-09T06:16:18.446Z,1028.20
2023-05-09T06:17:05.045Z,1028.17
2023-05-09T06:18:05.082Z,1028.18
2023-05-09T06:19:05.004Z,1028.13
2023-05-09T06:20:05.003Z,1028.15
2023-05-09T06:21:05.001Z,1028.16
2023-05-09T06:22:05.003Z,1028.16
2023-05-09T06:23:05.006Z,1028.16
2023-05-09T06:24:10.221Z,1028.17
2023-05-09T06:25:05.694Z,1028.12
2023-05-09T06:26:05.007Z,1028.13
2023-05-09T06:27:05.022Z,1028.15
2023-05-09T06:28:05.020Z,1028.10
2023-05-09T06:29:05.024Z,1028.13
2023-05-09T06:30:14.158Z,1028.12
2023-05-09T06:31:05.035Z,1028.09
2023-05-09T06:32:05.026Z,1028.07
2023-05-09T06:33:05.106Z,1028.09
2023-05-09T06:34:05.024Z,1028.09
2023-05-09T06:35:05.032Z,1028.11
2023-05-09T06:36:05.038Z,1028.05
2023-05-09T06:37:05.041Z,1028.02
2023-05-09T06:38:05.037Z,1028.03
2023-05-09T06:39:05.032Z,1028.02
2023-05-09T06:40:05.161Z,1028.03
2023-05-09T06:41:05.046Z,1028.04
2023-05-09T06:42:05.047Z,1028.03
2023-05-09T06:43:05.046Z,1028.05
2023-05-09T06:44:05.054Z,1028.04
2023-05-09T06:45:05.131Z,1028.04
2023-05-09T06:46:05.060Z,1028.00
2023-05-09T06:47:05.056Z,1028.01
2023-05-09T06:48:05.120Z,1027.96
2023-05-09T06:49:05.066Z,1027.99
2023-05-09T06:50:05.074Z,1027.97
2023-05-09T06:51:05.066Z,1027.97
2023-05-09T06:52:05.064Z,1027.96
2023-05-09T06:53:05.068Z,1027.92
2023-05-09T06:54:05.063Z,1027.97
2023-05-09T06:55:05.097Z,1027.92
2023-05-09T06:56:05.190Z,1027.88
2023-05-09T06:57:05.079Z,1027.91
2023-05-09T06:58:05.081Z,1027.94
2023-05-09T06:59:05.078Z,1027.92
2023-05-09T07:00:05.081Z,1027.93
2023-05-09T07:01:05.088Z,1027.93
2023-05-09T07:02:05.138Z,1027.92
2023-05-09T07:03:05.125Z,1027.90
2023-05-09T07:04:05.089Z,1027.88
2023-05-09T07:05:05.194Z,1027.89
2023-05-09T07:06:05.107Z,1027.90
2023-05-09T07:07:05.099Z,1027.91
2023-05-09T07:08:05.093Z,1027.94
2023-05-09T07:09:05.099Z,1027.91
2023-05-09T07:10:11.057Z,1027.91
2023-05-09T07:11:05.101Z,1027.93
2023-05-09T07:12:05.227Z,1027.92
2023-05-09T07:13:05.151Z,1027.93
2023-05-09T07:14:05.109Z,1027.87
2023-05-09T07:15:05.111Z,1027.85
2023-05-09T07:16:05.138Z,1027.86
2023-05-09T07:17:18.189Z,1027.91
2023-05-09T07:18:05.188Z,1027.86
2023-05-09T07:19:05.123Z,1027.86
2023-05-09T07:20:05.126Z,1027.88
2023-05-09T07:21:05.125Z,1027.88
2023-05-09T07:22:05.157Z,1027.87
2023-05-09T07:23:05.128Z,1027.82
2023-05-09T07:24:05.129Z,1027.86
2023-05-09T07:25:05.135Z,1027.86
2023-05-09T07:26:05.136Z,1027.85
2023-05-09T07:27:05.143Z,1027.81
2023-05-09T07:28:05.412Z,1027.84
2023-05-09T07:29:05.144Z,1027.84
2023-05-09T07:30:05.151Z,1027.81
2023-05-09T07:31:05.154Z,1027.83
2023-05-09T07:32:05.171Z,1027.88
2023-05-09T07:33:05.180Z,1027.85
2023-05-09T07:34:05.157Z,1027.84
2023-05-09T07:35:05.180Z,1027.86
2023-05-09T07:36:05.156Z,1027.82
2023-05-09T07:37:05.167Z,1027.81
2023-05-09T07:38:05.166Z,1027.79
2023-05-09T07:39:05.163Z,1027.78
2023-05-09T07:40:05.161Z,1027.75
2023-05-09T07:41:05.164Z,1027.76
2023-05-09T07:42:05.173Z,1027.74
2023-05-09T07:43:05.173Z,1027.78
2023-05-09T07:44:05.303Z,1027.75
2023-05-09T07:45:05.173Z,1027.73
2023-05-09T07:46:05.245Z,1027.71
2023-05-09T07:47:05.175Z,1027.75
2023-05-09T07:48:05.229Z,1027.66
2023-05-09T07:49:05.178Z,1027.67
2023-05-09T07:50:05.181Z,1027.66
2023-05-09T07:51:05.188Z,1027.68
2023-05-09T07:52:05.194Z,1027.64
2023-05-09T07:53:05.186Z,1027.67
2023-05-09T07:54:05.190Z,1027.67
2023-05-09T07:55:05.195Z,1027.64
2023-05-09T07:56:05.191Z,1027.65
2023-05-09T07:57:05.198Z,1027.64
2023-05-09T07:58:05.197Z,1027.64
2023-05-09T07:59:05.206Z,1027.64
2023-05-09T08:00:05.318Z,1027.61
2023-05-09T08:01:05.210Z,1027.62
2023-05-09T08:02:05.243Z,1027.59
2023-05-09T08:03:05.448Z,1027.57
2023-05-09T08:04:05.313Z,1027.58
2023-05-09T08:05:05.222Z,1027.54
2023-05-09T08:06:05.221Z,1027.56
2023-05-09T08:07:05.215Z,1027.53
2023-05-09T08:08:05.224Z,1027.50
2023-05-09T08:09:05.229Z,1027.50
2023-05-09T08:10:05.216Z,1027.49
2023-05-09T08:11:05.233Z,1027.50
2023-05-09T08:12:05.226Z,1027.53
2023-05-09T08:13:05.270Z,1027.50
2023-05-09T08:14:05.232Z,1027.48
2023-05-09T08:15:05.249Z,1027.45
2023-05-09T08:16:05.385Z,1027.42
2023-05-09T08:17:05.256Z,1027.41
2023-05-09T08:18:05.277Z,1027.41
2023-05-09T08:19:05.239Z,1027.42
2023-05-09T08:20:05.248Z,1027.38
2023-05-09T08:21:05.252Z,1027.40
2023-05-09T08:22:05.251Z,1027.39
2023-05-09T08:23:05.256Z,1027.39
2023-05-09T08:24:05.259Z,1027.38
2023-05-09T08:25:05.255Z,1027.42
2023-05-09T08:26:05.255Z,1027.39
2023-05-09T08:27:05.266Z,1027.37
2023-05-09T08:28:05.270Z,1027.38
2023-05-09T08:29:05.264Z,1027.40
2023-05-09T08:30:05.272Z,1027.37
2023-05-09T08:31:05.290Z,1027.36
2023-05-09T08:32:05.398Z,1027.36
2023-05-09T08:33:05.312Z,1027.30
2023-05-09T08:34:05.279Z,1027.36
2023-05-09T08:35:05.280Z,1027.37
2023-05-09T08:36:05.284Z,1027.35
2023-05-09T08:37:05.283Z,1027.40
2023-05-09T08:38:05.304Z,1027.36
2023-05-09T08:39:05.288Z,1027.36
2023-05-09T08:40:05.286Z,1027.33
2023-05-09T08:41:05.294Z,1027.37
2023-05-09T08:42:05.300Z,1027.34
2023-05-09T08:43:05.298Z,1027.33
2023-05-09T08:44:05.299Z,1027.34
2023-05-09T08:45:05.303Z,1027.31
2023-05-09T08:46:05.340Z,1027.28
2023-05-09T08:47:05.395Z,1027.28
2023-05-09T08:48:05.479Z,1027.26
2023-05-09T08:49:05.313Z,1027.22
2023-05-09T08:50:05.314Z,1027.24
2023-05-09T08:51:05.316Z,1027.27
2023-05-09T08:52:05.320Z,1027.21
2023-05-09T08:53:05.328Z,1027.20
2023-05-09T08:54:05.326Z,1027.20
2023-05-09T08:55:05.323Z,1027.18
2023-05-09T08:56:05.322Z,1027.17
2023-05-09T08:57:05.325Z,1027.25
2023-05-09T08:58:05.339Z,1027.23
2023-05-09T08:59:05.331Z,1027.23
2023-05-09T09:00:05.357Z,1027.17
2023-05-09T09:01:05.343Z,1027.18
2023-05-09T09:02:05.390Z,1027.22
2023-05-09T09:03:05.373Z,1027.21
2023-05-09T09:04:05.722Z,1027.17
2023-05-09T09:05:05.920Z,1027.14
2023-05-09T09:06:05.356Z,1027.14
2023-05-09T09:07:05.346Z,1027.12
2023-05-09T09:08:05.355Z,1027.15
2023-05-09T09:09:05.357Z,1027.16
2023-05-09T09:10:05.357Z,1027.13
2023-05-09T09:11:05.366Z,1027.07
2023-05-09T09:12:05.369Z,1027.13
2023-05-09T09:13:05.387Z,1027.13
2023-05-09T09:14:05.366Z,1027.17
2023-05-09T09:15:05.386Z,1027.14
2023-05-09T09:16:05.413Z,1027.14
2023-05-09T09:17:05.378Z,1027.15
2023-05-09T09:18:06.100Z,1027.11
2023-05-09T09:19:05.377Z,1027.12
2023-05-09T09:20:05.576Z,1027.12
2023-05-09T09:21:05.389Z,1027.09
2023-05-09T09:22:05.385Z,1027.08
2023-05-09T09:23:05.392Z,1027.06
2023-05-09T09:24:05.397Z,1027.06
2023-05-09T09:25:05.403Z,1027.09
2023-05-09T09:26:05.408Z,1027.10
2023-05-09T09:27:05.406Z,1027.08
2023-05-09T09:28:05.400Z,1027.08
2023-05-09T09:29:05.416Z,1027.09
2023-05-09T09:30:05.407Z,1027.11
2023-05-09T09:31:05.406Z,1027.04
2023-05-09T09:32:05.475Z,1027.09
2023-05-09T09:33:05.423Z,1027.07
2023-05-09T09:34:05.410Z,1027.09
2023-05-09T09:35:05.416Z,1027.07
2023-05-09T09:36:05.543Z,1027.06
2023-05-09T09:37:05.429Z,1027.01
2023-05-09T09:38:05.426Z,1027.02
2023-05-09T09:39:05.451Z,1027.01
2023-05-09T09:40:05.432Z,1027.02
2023-05-09T09:41:05.437Z,1027.03
2023-05-09T09:42:05.432Z,1027.02
2023-05-09T09:43:05.439Z,1026.98
2023-05-09T09:44:05.444Z,1027.00
2023-05-09T09:45:05.445Z,1027.02
2023-05-09T09:46:05.553Z,1027.01
2023-05-09T09:47:05.451Z,1027.02
2023-05-09T09:48:05.468Z,1027.00
2023-05-09T09:49:05.456Z,1026.97
2023-05-09T09:50:05.458Z,1026.98
2023-05-09T09:51:05.463Z,1027.00
2023-05-09T09:52:05.586Z,1026.95
2023-05-09T09:53:05.472Z,1026.95
2023-05-09T09:54:05.487Z,1027.01
2023-05-09T09:55:05.473Z,1026.98
2023-05-09T09:56:05.470Z,1026.97
2023-05-09T09:57:05.474Z,1027.01
2023-05-09T09:58:05.475Z,1026.96
2023-05-09T09:59:05.483Z,1026.91
2023-05-09T10:00:05.478Z,1026.95
2023-05-09T10:01:05.552Z,1026.92
2023-05-09T10:02:08.032Z,1026.95
2023-05-09T10:03:05.648Z,1026.92
2023-05-09T10:04:05.601Z,1026.91
2023-05-09T10:05:05.516Z,1026.91
2023-05-09T10:06:05.539Z,1026.92
2023-05-09T10:07:05.528Z,1026.91
2023-05-09T10:08:05.634Z,1026.98
2023-05-09T10:09:05.658Z,1026.90
2023-05-09T10:10:05.521Z,1026.86
2023-05-09T10:11:05.505Z,1026.83
2023-05-09T10:12:05.518Z,1026.86
2023-05-09T10:13:05.573Z,1026.88
2023-05-09T10:14:05.517Z,1026.88
2023-05-09T10:15:05.517Z,1026.90
2023-05-09T10:16:05.676Z,1026.89
2023-05-09T10:17:05.909Z,1026.87
2023-05-09T10:18:05.733Z,1026.86
2023-05-09T10:19:05.570Z,1026.83
2023-05-09T10:20:05.548Z,1026.86
2023-05-09T10:21:05.641Z,1026.79
2023-05-09T10:22:05.600Z,1026.76
2023-05-09T10:23:05.540Z,1026.84
2023-05-09T10:24:05.962Z,1026.82
2023-05-09T10:25:05.572Z,1026.81
2023-05-09T10:26:05.558Z,1026.82
2023-05-09T10:27:05.548Z,1026.83
2023-05-09T10:28:05.553Z,1026.78
2023-05-09T10:29:05.564Z,1026.79
2023-05-09T10:30:05.562Z,1026.74
2023-05-09T10:31:07.864Z,1026.74
2023-05-09T10:32:05.571Z,1026.76
2023-05-09T10:33:05.590Z,1026.80
2023-05-09T10:34:05.582Z,1026.78
2023-05-09T10:35:05.582Z,1026.74
2023-05-09T10:36:05.577Z,1026.68
2023-05-09T10:37:05.577Z,1026.72
2023-05-09T10:38:05.581Z,1026.69
2023-05-09T10:39:05.597Z,1026.71
2023-05-09T10:40:05.745Z,1026.72
2023-05-09T10:41:05.598Z,1026.79
2023-05-09T10:42:05.606Z,1026.74
2023-05-09T10:43:05.589Z,1026.74
2023-05-09T10:44:05.617Z,1026.73
2023-05-09T10:45:05.608Z,1026.71
2023-05-09T10:46:05.648Z,1026.75
2023-05-09T10:47:05.649Z,1026.74
2023-05-09T10:48:05.649Z,1026.69
2023-05-09T10:49:05.620Z,1026.69
2023-05-09T10:50:05.620Z,1026.69
2023-05-09T10:51:05.628Z,1026.71
2023-05-09T10:52:05.640Z,1026.67
2023-05-09T10:53:05.623Z,1026.69
2023-05-09T10:54:05.658Z,1026.72
2023-05-09T10:55:05.622Z,1026.66
2023-05-09T10:56:05.760Z,1026.69
2023-05-09T10:57:05.636Z,1026.74
2023-05-09T10:58:05.644Z,1026.73
2023-05-09T10:59:05.660Z,1026.74
2023-05-09T11:00:05.646Z,1026.74
2023-05-09T11:01:05.652Z,1026.72
2023-05-09T11:02:05.673Z,1026.77
2023-05-09T11:03:05.898Z,1026.71
2023-05-09T11:04:05.697Z,1026.66
2023-05-09T11:05:05.655Z,1026.66
2023-05-09T11:06:05.658Z,1026.69
2023-05-09T11:07:05.670Z,1026.62
2023-05-09T11:08:05.668Z,1026.61
2023-05-09T11:09:05.725Z,1026.62
2023-05-09T11:10:05.681Z,1026.63
2023-05-09T11:11:05.687Z,1026.59
2023-05-09T11:12:06.004Z,1026.64
2023-05-09T11:13:05.726Z,1026.56
2023-05-09T11:14:05.843Z,1026.56
2023-05-09T11:15:05.697Z,1026.60
2023-05-09T11:16:05.707Z,1026.56
2023-05-09T11:17:05.715Z,1026.56
2023-05-09T11:18:05.767Z,1026.58
2023-05-09T11:19:05.752Z,1026.55
2023-05-09T11:20:05.774Z,1026.54
2023-05-09T11:21:05.706Z,1026.54
2023-05-09T11:22:05.716Z,1026.57
2023-05-09T11:23:05.714Z,1026.56
2023-05-09T11:24:05.722Z,1026.51
2023-05-09T11:25:05.721Z,1026.48
2023-05-09T11:26:05.766Z,1026.47
2023-05-09T11:27:05.733Z,1026.54
2023-05-09T11:28:05.853Z,1026.54
2023-05-09T11:29:05.734Z,1026.54
2023-05-09T11:30:05.744Z,1026.53
2023-05-09T11:31:05.749Z,1026.51
2023-05-09T11:32:05.764Z,1026.50
2023-05-09T11:33:05.789Z,1026.47
2023-05-09T11:34:05.798Z,1026.47
2023-05-09T11:35:05.753Z,1026.43
2023-05-09T11:36:05.750Z,1026.45
2023-05-09T11:37:05.757Z,1026.42
2023-05-09T11:38:05.770Z,1026.44
2023-05-09T11:39:05.761Z,1026.51
2023-05-09T11:40:05.767Z,1026.43
2023-05-09T11:41:05.781Z,1026.46
2023-05-09T11:42:05.780Z,1026.43
2023-05-09T11:43:05.785Z,1026.41
2023-05-09T11:44:05.897Z,1026.37
2023-05-09T11:45:05.783Z,1026.37
2023-05-09T11:46:05.844Z,1026.34
2023-05-09T11:47:05.788Z,1026.35
2023-05-09T11:48:05.825Z,1026.28
2023-05-09T11:49:05.806Z,1026.31
2023-05-09T11:50:05.801Z,1026.25
2023-05-09T11:51:05.814Z,1026.21
2023-05-09T11:52:05.814Z,1026.26
2023-05-09T11:53:05.808Z,1026.24
2023-05-09T11:54:05.813Z,1026.20
2023-05-09T11:55:05.811Z,1026.22
2023-05-09T11:56:05.816Z,1026.21
2023-05-09T11:57:05.823Z,1026.20
2023-05-09T11:58:05.838Z,1026.17
2023-05-09T11:59:05.829Z,1026.17
2023-05-09T12:00:05.945Z,1026.16
2023-05-09T12:01:05.833Z,1026.20
2023-05-09T12:02:05.896Z,1026.16
2023-05-09T12:03:05.958Z,1026.13
2023-05-09T12:04:05.909Z,1026.16
2023-05-09T12:05:05.846Z,1026.14